Time;durP1;ratioP1;P1;durP2;ratioP2;P2;SDS_P1;SDS_P2;PMS_P1;PMS_P2;Temp;Humidity;BMP_temperature;BMP_pressure;BME280_temperature;BME280_humidity;BME280_pressure;Samples;Min_cycle;Max_cycle;Signal;HPM_P1;HPM_P2
2022/10/06 00:00:08;;;;;;;3.57;3.17;;;;;;;;;;5081051;28;20196;-75
2022/10/06 00:02:35;;;;;;;4.27;3.13;;;;;;;;;;5062106;28;20197;-75
2022/10/06 00:05:01;;;;;;;3.30;2.90;;;;;;;;;;5080857;28;20209;-75
2022/10/06 00:07:27;;;;;;;7.23;3.03;;;;;;;;;;5065263;28;20180;-75
2022/10/06 00:09:53;;;;;;;3.57;2.77;;;;;;;;;;5083243;28;20178;-75
2022/10/06 00:12:19;;;;;;;5.43;3.00;;;;;;;;;;5067228;28;20285;-75
2022/10/06 00:14:46;;;;;;;3.23;2.93;;;;;;;;;;5077929;28;20280;-75
2022/10/06 00:17:12;;;;;;;3.50;3.00;;;;;;;;;;5083190;28;20184;-75
2022/10/06 00:19:38;;;;;;;5.27;2.80;;;;;;;;;;5086642;28;20578;-75
2022/10/06 00:22:04;;;;;;;6.23;3.13;;;;;;;;;;5079646;28;20592;-75
2022/10/06 00:24:31;;;;;;;3.70;3.30;;;;;;;;;;5075547;28;20693;-75
2022/10/06 00:26:57;;;;;;;4.10;3.20;;;;;;;;;;5085850;28;20503;-75
2022/10/06 00:29:23;;;;;;;3.90;2.70;;;;;;;;;;5085848;28;20636;-75
2022/10/06 00:31:51;;;;;;;5.23;3.00;;;;;;;;;;5059795;28;20806;-75
2022/10/06 00:34:17;;;;;;;3.57;3.10;;;;;;;;;;5086079;28;20184;-75
2022/10/06 00:36:44;;;;;;;6.83;3.27;;;;;;;;;;5085187;28;20271;-75
2022/10/06 00:39:10;;;;;;;4.40;3.47;;;;;;;;;;5065197;28;20186;-75
2022/10/06 00:41:38;;;;;;;3.67;3.20;;;;;;;;;;5072530;28;20216;-74
2022/10/06 00:44:04;;;;;;;4.60;3.20;;;;;;;;;;5084662;28;20261;-74
2022/10/06 00:46:30;;;;;;;3.17;2.87;;;;;;;;;;5070498;28;20241;-74
2022/10/06 00:49:00;;;;;;;5.47;3.13;;;;;;;;;;5057364;28;20185;-74
2022/10/06 00:51:26;;;;;;;4.23;3.07;;;;;;;;;;5068402;28;20196;-74
2022/10/06 00:53:53;;;;;;;4.80;3.30;;;;;;;;;;5083845;28;20181;-74
2022/10/06 00:56:19;;;;;;;3.80;3.07;;;;;;;;;;5066507;28;20636;-74
2022/10/06 00:58:45;;;;;;;3.53;3.07;;;;;;;;;;5076280;28;20223;-74
2022/10/06 01:01:12;;;;;;;4.47;2.93;;;;;;;;;;5080150;28;20648;-74
2022/10/06 01:03:50;;;;;;;4.63;3.17;;;;;;;;;;5069109;28;20273;-74
2022/10/06 01:06:16;;;;;;;4.27;3.07;;;;;;;;;;5082939;28;20176;-75
2022/10/06 01:08:42;;;;;;;4.67;3.23;;;;;;;;;;5081116;28;20188;-75
2022/10/06 01:11:12;;;;;;;5.93;3.50;;;;;;;;;;5077233;28;20209;-74
2022/10/06 01:13:42;;;;;;;4.57;3.40;;;;;;;;;;5060522;28;20209;-74
2022/10/06 01:16:23;;;;;;;3.87;3.43;;;;;;;;;;5084114;28;20199;-74
2022/10/06 01:18:49;;;;;;;4.87;3.20;;;;;;;;;;5074804;28;20189;-74
2022/10/06 01:21:19;;;;;;;3.37;2.97;;;;;;;;;;5075443;28;20207;-74
2022/10/06 01:23:46;;;;;;;4.83;3.03;;;;;;;;;;5056374;28;20251;-74
2022/10/06 01:26:13;;;;;;;3.47;3.10;;;;;;;;;;5071258;28;20181;-74
2022/10/06 01:28:40;;;;;;;4.70;3.13;;;;;;;;;;5084705;28;20199;-74
2022/10/06 01:31:07;;;;;;;4.30;3.57;;;;;;;;;;5062104;28;20204;-74
2022/10/06 01:33:33;;;;;;;5.40;3.50;;;;;;;;;;5065483;28;20245;-74
2022/10/06 01:35:59;;;;;;;3.87;3.13;;;;;;;;;;5066560;28;20384;-74
2022/10/06 01:38:26;;;;;;;5.23;3.40;;;;;;;;;;5048179;28;20680;-74
2022/10/06 01:40:57;;;;;;;3.80;3.30;;;;;;;;;;5065294;28;20216;-75
2022/10/06 01:43:23;;;;;;;3.80;3.20;;;;;;;;;;5070996;28;20200;-74
2022/10/06 01:45:53;;;;;;;4.47;3.30;;;;;;;;;;5074580;28;20202;-74
2022/10/06 01:48:20;;;;;;;5.20;3.77;;;;;;;;;;5064684;28;20183;-74
2022/10/06 01:50:47;;;;;;;6.00;3.30;;;;;;;;;;5059001;28;20224;-74
2022/10/06 01:53:16;;;;;;;5.40;3.53;;;;;;;;;;5083795;28;20184;-74
2022/10/06 01:55:42;;;;;;;4.67;3.70;;;;;;;;;;5066801;28;20242;-75
2022/10/06 01:58:11;;;;;;;5.47;4.03;;;;;;;;;;5067551;28;20208;-75
2022/10/06 02:00:38;;;;;;;4.20;3.63;;;;;;;;;;5052071;28;20208;-75
2022/10/06 02:03:05;;;;;;;5.17;3.30;;;;;;;;;;5061171;28;20189;-74
2022/10/06 02:05:31;;;;;;;6.73;3.43;;;;;;;;;;5083694;28;20250;-74
2022/10/06 02:07:57;;;;;;;5.77;3.47;;;;;;;;;;5060004;28;20211;-75
2022/10/06 02:10:23;;;;;;;4.67;3.63;;;;;;;;;;5064217;28;20180;-75
2022/10/06 02:12:52;;;;;;;5.83;3.50;;;;;;;;;;5057961;28;20207;-74
2022/10/06 02:15:19;;;;;;;6.17;3.80;;;;;;;;;;5063147;28;20632;-75
2022/10/06 02:17:46;;;;;;;4.73;3.87;;;;;;;;;;5066967;28;20699;-75
2022/10/06 02:20:13;;;;;;;4.83;3.30;;;;;;;;;;5060203;28;20260;-75
2022/10/06 02:22:40;;;;;;;7.80;3.83;;;;;;;;;;5068557;28;20694;-75
2022/10/06 02:25:06;;;;;;;5.93;3.50;;;;;;;;;;5071694;28;20204;-75
2022/10/06 02:27:33;;;;;;;5.77;3.63;;;;;;;;;;5062632;28;20180;-75
2022/10/06 02:30:00;;;;;;;6.03;3.30;;;;;;;;;;5058632;28;20173;-75
2022/10/06 02:32:34;;;;;;;4.97;3.13;;;;;;;;;;5072072;28;20188;-75
2022/10/06 02:35:02;;;;;;;6.10;3.30;;;;;;;;;;5054021;28;20203;-75
2022/10/06 02:37:29;;;;;;;5.57;3.90;;;;;;;;;;5059474;28;20192;-75
2022/10/06 02:39:55;;;;;;;4.13;3.40;;;;;;;;;;5066392;28;20181;-75
2022/10/06 02:42:22;;;;;;;4.27;3.40;;;;;;;;;;5058866;28;20610;-75
2022/10/06 02:44:50;;;;;;;4.47;3.70;;;;;;;;;;5080637;28;20677;-75
2022/10/06 02:47:16;;;;;;;6.97;3.93;;;;;;;;;;5062652;28;20704;-75
2022/10/06 02:49:42;;;;;;;6.50;3.70;;;;;;;;;;5062396;28;20185;-76
2022/10/06 02:52:10;;;;;;;5.60;3.30;;;;;;;;;;5069847;28;20206;-79
2022/10/06 02:54:36;;;;;;;5.60;3.33;;;;;;;;;;5070703;28;20296;-75
2022/10/06 02:57:02;;;;;;;5.37;4.30;;;;;;;;;;5070663;28;20312;-74
2022/10/06 02:59:28;;;;;;;8.73;4.67;;;;;;;;;;5070798;28;20242;-78
2022/10/06 03:01:54;;;;;;;8.03;4.63;;;;;;;;;;5066420;28;20243;-74
2022/10/06 03:04:21;;;;;;;8.57;5.03;;;;;;;;;;5064648;28;20205;-74
2022/10/06 03:06:48;;;;;;;6.97;5.20;;;;;;;;;;5075909;28;20201;-74
2022/10/06 03:09:18;;;;;;;6.97;4.87;;;;;;;;;;5070236;28;20188;-74
2022/10/06 03:11:44;;;;;;;7.30;5.23;;;;;;;;;;5064171;28;20565;-74
2022/10/06 03:14:15;;;;;;;6.57;4.90;;;;;;;;;;5048285;28;20677;-74
2022/10/06 03:16:42;;;;;;;6.70;4.63;;;;;;;;;;5089145;28;20501;-74
2022/10/06 03:19:14;;;;;;;5.93;4.50;;;;;;;;;;5062360;28;20599;-75
2022/10/06 03:21:43;;;;;;;8.80;4.53;;;;;;;;;;5068816;28;20221;-75
2022/10/06 03:24:11;;;;;;;6.13;4.40;;;;;;;;;;5065455;28;20243;-74
2022/10/06 03:26:39;;;;;;;6.63;4.43;;;;;;;;;;5046948;28;20180;-74
2022/10/06 03:29:06;;;;;;;5.53;3.93;;;;;;;;;;5053845;28;20271;-74
2022/10/06 03:31:32;;;;;;;4.63;3.87;;;;;;;;;;5070043;28;20731;-74
2022/10/06 03:33:59;;;;;;;8.13;4.00;;;;;;;;;;5062636;28;20191;-75
2022/10/06 03:36:28;;;;;;;6.37;4.10;;;;;;;;;;5067809;28;20184;-75
2022/10/06 03:38:55;;;;;;;7.07;4.47;;;;;;;;;;5067622;28;20184;-75
2022/10/06 03:41:24;;;;;;;6.63;3.93;;;;;;;;;;5063213;28;20208;-75
2022/10/06 03:43:50;;;;;;;5.30;3.67;;;;;;;;;;5084173;28;20252;-74
2022/10/06 03:46:19;;;;;;;6.37;3.63;;;;;;;;;;5074776;28;20185;-75
2022/10/06 03:48:45;;;;;;;4.70;3.70;;;;;;;;;;5067881;28;20257;-74
2022/10/06 03:51:13;;;;;;;6.07;3.50;;;;;;;;;;5063843;28;20196;-74
2022/10/06 03:53:39;;;;;;;4.17;3.60;;;;;;;;;;5061540;28;20184;-74
2022/10/06 03:56:07;;;;;;;7.13;4.30;;;;;;;;;;5082805;28;20185;-74
2022/10/06 03:58:37;;;;;;;4.70;3.77;;;;;;;;;;5066505;28;20182;-75
2022/10/06 04:01:12;;;;;;;4.93;3.77;;;;;;;;;;5070191;28;20258;-75
2022/10/06 04:03:39;;;;;;;6.23;3.63;;;;;;;;;;5066721;28;20239;-74
2022/10/06 04:06:05;;;;;;;7.87;3.70;;;;;;;;;;5061766;28;20172;-74
2022/10/06 04:08:32;;;;;;;5.03;3.43;;;;;;;;;;5058893;28;20178;-74
2022/10/06 04:11:10;;;;;;;5.03;3.70;;;;;;;;;;5062109;28;20688;-75
2022/10/06 04:13:36;;;;;;;4.33;3.27;;;;;;;;;;5063475;28;20192;-75
2022/10/06 04:16:11;;;;;;;4.70;3.17;;;;;;;;;;5069131;28;20211;-75
2022/10/06 04:18:38;;;;;;;4.40;2.70;;;;;;;;;;5073636;28;20238;-74
2022/10/06 04:21:04;;;;;;;3.63;2.50;;;;;;;;;;5047792;28;20573;-74
2022/10/06 04:23:30;;;;;;;3.17;2.10;;;;;;;;;;5045139;28;20212;-75
2022/10/06 04:26:01;;;;;;;2.33;2.10;;;;;;;;;;5041226;28;20242;-75
2022/10/06 04:28:28;;;;;;;3.33;1.97;;;;;;;;;;5065732;28;20191;-74
2022/10/06 04:30:56;;;;;;;2.03;1.50;;;;;;;;;;5064231;28;20204;-75
2022/10/06 04:33:22;;;;;;;3.17;1.70;;;;;;;;;;5084052;28;20282;-74
2022/10/06 04:35:55;;;;;;;2.43;1.40;;;;;;;;;;5062707;28;20184;-74
2022/10/06 04:38:22;;;;;;;1.77;1.20;;;;;;;;;;5062610;28;20526;-74
2022/10/06 04:40:48;;;;;;;1.83;1.30;;;;;;;;;;5059311;28;20571;-75
2022/10/06 04:43:14;;;;;;;2.83;1.40;;;;;;;;;;5065532;28;20204;-74
2022/10/06 04:45:40;;;;;;;1.73;1.23;;;;;;;;;;5063453;28;20557;-74
2022/10/06 04:48:07;;;;;;;3.75;1.50;;;;;;;;;;5065413;28;20881;-74
2022/10/06 04:50:33;;;;;;;4.77;1.30;;;;;;;;;;5061240;28;20300;-74
2022/10/06 04:53:10;;;;;;;4.47;1.20;;;;;;;;;;5063805;28;20538;-74
2022/10/06 04:55:37;;;;;;;2.67;1.20;;;;;;;;;;5074006;28;20169;-74
2022/10/06 04:58:03;;;;;;;2.10;1.17;;;;;;;;;;5063569;28;20281;-74
2022/10/06 05:00:29;;;;;;;3.13;1.50;;;;;;;;;;5083321;28;20462;-74
2022/10/06 05:02:56;;;;;;;1.67;1.17;;;;;;;;;;5088129;28;20199;-78
2022/10/06 05:05:23;;;;;;;1.97;1.20;;;;;;;;;;5037882;28;20180;-74
2022/10/06 05:07:51;;;;;;;2.37;1.50;;;;;;;;;;5080591;28;20688;-75
2022/10/06 05:10:17;;;;;;;4.93;1.30;;;;;;;;;;5077981;28;20188;-75
2022/10/06 05:12:44;;;;;;;2.20;1.27;;;;;;;;;;5062708;28;20553;-75
2022/10/06 05:15:10;;;;;;;1.90;1.23;;;;;;;;;;5063106;28;20184;-76
2022/10/06 05:17:36;;;;;;;3.63;1.40;;;;;;;;;;5063741;28;20172;-75
2022/10/06 05:20:04;;;;;;;1.57;1.30;;;;;;;;;;5059697;28;20590;-75
2022/10/06 05:22:30;;;;;;;3.57;1.43;;;;;;;;;;5074843;28;20212;-74
2022/10/06 05:24:57;;;;;;;2.47;1.73;;;;;;;;;;5043054;28;20255;-75
2022/10/06 05:27:24;;;;;;;2.03;1.50;;;;;;;;;;5079025;28;20184;-75
2022/10/06 05:29:50;;;;;;;3.20;1.50;;;;;;;;;;5062505;28;20185;-74
2022/10/06 05:32:17;;;;;;;2.07;1.57;;;;;;;;;;5061020;28;20197;-75
2022/10/06 05:34:43;;;;;;;2.53;1.80;;;;;;;;;;5084224;28;20255;-75
2022/10/06 05:37:09;;;;;;;2.80;1.77;;;;;;;;;;5066762;28;20775;-75
2022/10/06 05:39:36;;;;;;;2.87;1.67;;;;;;;;;;5066167;28;20183;-75
2022/10/06 05:42:02;;;;;;;3.73;1.80;;;;;;;;;;5068265;28;20204;-75
2022/10/06 05:44:28;;;;;;;2.77;1.83;;;;;;;;;;5083797;28;20205;-73
2022/10/06 05:46:57;;;;;;;3.07;1.90;;;;;;;;;;5065574;28;20223;-74
2022/10/06 05:49:23;;;;;;;2.97;1.60;;;;;;;;;;5066049;28;20659;-72
2022/10/06 05:51:59;;;;;;;3.70;1.80;;;;;;;;;;5064126;28;20276;-72
2022/10/06 05:54:27;;;;;;;2.60;1.90;;;;;;;;;;5081252;28;20180;-72
2022/10/06 05:56:54;;;;;;;2.77;2.00;;;;;;;;;;5046139;28;20254;-72
2022/10/06 05:59:21;;;;;;;4.23;2.10;;;;;;;;;;5068882;28;20733;-72
2022/10/06 06:01:47;;;;;;;6.83;2.60;;;;;;;;;;5073136;28;20706;-72
2022/10/06 06:04:24;;;;;;;3.80;2.00;;;;;;;;;;5067717;28;20707;-72
2022/10/06 06:06:54;;;;;;;3.30;2.20;;;;;;;;;;5066643;28;20176;-72
2022/10/06 06:09:25;;;;;;;4.43;1.90;;;;;;;;;;5069702;28;20177;-72
2022/10/06 06:11:57;;;;;;;3.00;2.33;;;;;;;;;;5084646;28;20205;-72
2022/10/06 06:17:22;;;;;;;3.50;2.03;;;;;;;;;;5082567;28;20197;-72
2022/10/06 06:19:49;;;;;;;3.00;2.20;;;;;;;;;;5068463;28;20216;-72
2022/10/06 06:22:15;;;;;;;4.27;2.03;;;;;;;;;;5072157;28;20692;-72
2022/10/06 06:24:44;;;;;;;3.30;2.10;;;;;;;;;;5067915;28;20201;-71
2022/10/06 06:27:10;;;;;;;3.90;2.00;;;;;;;;;;5066553;28;20632;-72
2022/10/06 06:29:38;;;;;;;4.57;2.47;;;;;;;;;;5067387;28;20177;-72
2022/10/06 06:32:05;;;;;;;5.37;2.50;;;;;;;;;;5076154;28;20213;-71
2022/10/06 06:34:32;;;;;;;4.93;2.80;;;;;;;;;;5078080;28;20172;-71
2022/10/06 06:36:58;;;;;;;4.90;2.60;;;;;;;;;;5058698;28;20226;-71
2022/10/06 06:39:25;;;;;;;5.30;2.50;;;;;;;;;;5061343;28;20691;-76
2022/10/06 06:41:52;;;;;;;4.20;2.20;;;;;;;;;;5060976;28;20574;-72
2022/10/06 06:44:47;;;;;;;4.57;2.60;;;;;;;;;;5060850;28;20204;-72
2022/10/06 06:47:24;;;;;;;4.77;2.40;;;;;;;;;;5061447;28;20180;-72
2022/10/06 06:49:50;;;;;;;6.07;2.27;;;;;;;;;;5049865;28;20204;-72
2022/10/06 06:52:19;;;;;;;4.93;2.00;;;;;;;;;;5059998;28;20203;-72
2022/10/06 06:54:47;;;;;;;4.43;1.87;;;;;;;;;;5062130;28;20185;-72
2022/10/06 06:57:13;;;;;;;2.37;1.60;;;;;;;;;;5074156;28;20189;-72
2022/10/06 06:59:39;;;;;;;2.93;1.50;;;;;;;;;;5061453;28;20230;-72
2022/10/06 07:02:10;;;;;;;4.23;1.43;;;;;;;;;;5093735;28;20212;-72
2022/10/06 07:04:39;;;;;;;2.83;1.40;;;;;;;;;;5060942;28;20204;-72
2022/10/06 07:07:10;;;;;;;4.63;1.40;;;;;;;;;;5058777;28;20196;-72
2022/10/06 07:09:37;;;;;;;4.30;1.50;;;;;;;;;;5066316;28;20185;-72
2022/10/06 07:12:10;;;;;;;4.23;1.20;;;;;;;;;;5065022;28;20192;-72
2022/10/06 07:25:05;;;;;;;3.53;1.30;;;;;;;;;;5071199;28;20237;-72
2022/10/06 07:25:38;;;;;;;2.50;1.10;;;;;;;;;;5084074;28;20188;-72
2022/10/06 07:28:11;;;;;;;5.93;1.50;;;;;;;;;;5063613;28;20217;-72
2022/10/06 07:30:37;;;;;;;3.20;1.50;;;;;;;;;;5063624;28;20176;-72
2022/10/06 07:33:15;;;;;;;2.87;1.60;;;;;;;;;;5060154;28;20207;-72
2022/10/06 07:35:43;;;;;;;4.07;1.60;;;;;;;;;;5087452;28;20265;-71
2022/10/06 07:38:10;;;;;;;3.10;1.37;;;;;;;;;;5047118;28;20220;-73
2022/10/06 07:40:40;;;;;;;4.70;1.40;;;;;;;;;;5059775;28;20181;-72
2022/10/06 07:43:08;;;;;;;4.03;1.40;;;;;;;;;;5067125;28;20195;-72
2022/10/06 07:45:40;;;;;;;5.03;1.40;;;;;;;;;;5069767;28;20177;-73
2022/10/06 07:48:17;;;;;;;4.87;1.47;;;;;;;;;;5067886;28;20310;-72
2022/10/06 07:50:47;;;;;;;2.77;1.40;;;;;;;;;;5060081;28;20200;-72
2022/10/06 07:53:13;;;;;;;4.37;1.47;;;;;;;;;;5071409;28;20230;-72
2022/10/06 07:55:45;;;;;;;5.03;1.50;;;;;;;;;;5070740;28;20705;-72
2022/10/06 07:58:25;;;;;;;5.97;1.33;;;;;;;;;;5062200;28;20188;-72
2022/10/06 08:00:51;;;;;;;4.30;1.30;;;;;;;;;;5080875;28;20200;-72
2022/10/06 08:03:18;;;;;;;6.87;1.30;;;;;;;;;;5084839;28;20196;-72
2022/10/06 08:05:45;;;;;;;7.60;1.60;;;;;;;;;;5072251;28;20755;-72
2022/10/06 08:08:13;;;;;;;6.33;1.80;;;;;;;;;;5069803;28;20180;-72
2022/10/06 08:10:40;;;;;;;7.00;1.33;;;;;;;;;;5087733;28;20574;-72
2022/10/06 08:13:06;;;;;;;6.93;1.30;;;;;;;;;;5081393;28;20176;-72
2022/10/06 08:15:33;;;;;;;6.30;1.40;;;;;;;;;;5080979;28;20172;-72
2022/10/06 08:17:59;;;;;;;5.33;1.50;;;;;;;;;;5084548;28;20188;-72
2022/10/06 08:20:26;;;;;;;2.47;1.30;;;;;;;;;;5081664;28;20729;-72
2022/10/06 08:22:53;;;;;;;4.60;1.40;;;;;;;;;;5080244;28;20185;-72
2022/10/06 08:25:19;;;;;;;4.07;1.40;;;;;;;;;;5084617;28;20215;-73
2022/10/06 08:27:45;;;;;;;7.97;1.40;;;;;;;;;;5082007;28;20185;-75
2022/10/06 08:30:12;;;;;;;6.93;1.40;;;;;;;;;;5076594;28;20268;-74
2022/10/06 08:32:41;;;;;;;4.10;1.33;;;;;;;;;;5084276;28;20208;-74
2022/10/06 08:35:08;;;;;;;6.13;1.60;;;;;;;;;;5081801;28;20263;-73
2022/10/06 08:37:34;;;;;;;4.97;1.33;;;;;;;;;;5084326;28;20185;-73
2022/10/06 08:40:00;;;;;;;5.53;1.47;;;;;;;;;;5078307;28;20653;-74
2022/10/06 08:42:38;;;;;;;7.93;1.70;;;;;;;;;;5083981;28;20215;-73
2022/10/06 08:45:22;;;;;;;3.73;1.50;;;;;;;;;;5086834;28;20269;-74
2022/10/06 08:47:59;;;;;;;2.93;1.30;;;;;;;;;;5085763;28;20552;-80
2022/10/06 08:50:26;;;;;;;6.10;2.00;;;;;;;;;;5092173;28;20177;-76
2022/10/06 08:53:08;;;;;;;5.60;1.53;;;;;;;;;;5090478;28;20218;-85
2022/10/06 08:55:34;;;;;;;4.50;1.50;;;;;;;;;;5084673;28;20196;-77
2022/10/06 08:58:14;;;;;;;7.57;1.57;;;;;;;;;;5077169;28;20285;-75
2022/10/06 09:00:40;;;;;;;6.37;1.47;;;;;;;;;;5065193;28;20242;-74
2022/10/06 09:03:14;;;;;;;5.60;1.60;;;;;;;;;;5084583;28;20223;-73
2022/10/06 09:05:40;;;;;;;6.77;1.67;;;;;;;;;;5079261;28;20241;-73
2022/10/06 09:08:23;;;;;;;5.13;1.90;;;;;;;;;;5086461;28;20204;-73
2022/10/06 09:11:07;;;;;;;5.93;1.57;;;;;;;;;;5055383;28;20308;-74
2022/10/06 09:13:53;;;;;;;6.97;1.70;;;;;;;;;;5079606;28;20207;-73
2022/10/06 09:16:27;;;;;;;5.73;1.77;;;;;;;;;;5078862;28;20180;-73
2022/10/06 09:19:01;;;;;;;4.67;1.60;;;;;;;;;;5081454;28;20177;-73
2022/10/06 09:21:33;;;;;;;5.70;1.60;;;;;;;;;;5076032;28;20195;-73
2022/10/06 09:24:04;;;;;;;7.70;1.80;;;;;;;;;;5080546;28;20241;-74
2022/10/06 09:26:31;;;;;;;6.27;1.97;;;;;;;;;;5086362;28;20168;-74
2022/10/06 09:28:58;;;;;;;7.07;1.40;;;;;;;;;;5085574;28;20290;-74
2022/10/06 09:31:31;;;;;;;8.93;1.43;;;;;;;;;;5064383;28;20277;-74
2022/10/06 09:34:18;;;;;;;4.17;1.30;;;;;;;;;;5079032;28;20177;-74
2022/10/06 09:37:02;;;;;;;3.57;1.20;;;;;;;;;;5031013;28;20223;-74
2022/10/06 09:39:35;;;;;;;6.23;1.57;;;;;;;;;;5082903;28;20275;-74
2022/10/06 09:42:03;;;;;;;3.97;1.40;;;;;;;;;;5076096;28;20192;-74
2022/10/06 09:44:43;;;;;;;7.03;1.47;;;;;;;;;;5067216;28;20270;-74
2022/10/06 09:47:23;;;;;;;4.80;1.57;;;;;;;;;;5085129;28;20184;-74
2022/10/06 09:50:03;;;;;;;6.13;1.50;;;;;;;;;;5085930;28;20209;-74
2022/10/06 09:52:29;;;;;;;8.57;1.60;;;;;;;;;;5061861;28;20684;-74
2022/10/06 09:55:12;;;;;;;6.43;1.50;;;;;;;;;;5059690;28;20181;-74
2022/10/06 09:57:39;;;;;;;5.97;1.53;;;;;;;;;;5085682;28;20184;-74
2022/10/06 10:00:28;;;;;;;5.03;1.40;;;;;;;;;;5086246;28;20205;-73
2022/10/06 10:03:04;;;;;;;4.17;1.57;;;;;;;;;;5080169;28;20181;-74
2022/10/06 10:05:38;;;;;;;4.97;1.70;;;;;;;;;;5081558;28;20188;-74
2022/10/06 10:08:13;;;;;;;4.53;1.50;;;;;;;;;;5049191;28;20275;-77
2022/10/06 10:10:40;;;;;;;6.90;1.67;;;;;;;;;;5074178;28;20320;-76
2022/10/06 10:13:17;;;;;;;3.47;1.30;;;;;;;;;;5082436;28;20212;-75
2022/10/06 10:15:55;;;;;;;5.37;1.70;;;;;;;;;;5076493;28;20617;-75
2022/10/06 10:18:25;;;;;;;6.63;1.67;;;;;;;;;;5063764;28;20691;-77
2022/10/06 10:20:59;;;;;;;6.33;1.70;;;;;;;;;;5085649;28;20673;-76
2022/10/06 10:23:30;;;;;;;6.53;1.93;;;;;;;;;;5086642;28;20249;-80
2022/10/06 10:26:16;;;;;;;5.43;1.43;;;;;;;;;;5085679;28;20703;-71
2022/10/06 10:28:52;;;;;;;6.33;1.43;;;;;;;;;;5086162;28;20712;-74
2022/10/06 10:31:22;;;;;;;5.30;1.40;;;;;;;;;;5066420;28;20204;-75
2022/10/06 10:34:12;;;;;;;6.23;1.50;;;;;;;;;;5063306;28;20222;-76
2022/10/06 10:36:59;;;;;;;4.10;1.40;;;;;;;;;;5082268;28;20268;-76
2022/10/06 10:39:40;;;;;;;4.87;1.53;;;;;;;;;;5081724;28;20601;-75
2022/10/06 10:42:14;;;;;;;5.63;1.40;;;;;;;;;;5081044;28;20299;-75
2022/10/06 10:44:49;;;;;;;5.83;1.40;;;;;;;;;;5089678;28;20668;-75
2022/10/06 10:47:33;;;;;;;5.03;1.33;;;;;;;;;;5087163;28;20267;-75
2022/10/06 10:50:05;;;;;;;5.97;1.37;;;;;;;;;;5087386;28;20564;-75
2022/10/06 10:52:35;;;;;;;4.33;1.27;;;;;;;;;;5079004;28;20204;-75
2022/10/06 10:55:25;;;;;;;4.00;1.40;;;;;;;;;;5087935;28;20222;-75
2022/10/06 10:57:53;;;;;;;6.20;1.50;;;;;;;;;;5076243;28;20181;-75
2022/10/06 11:00:21;;;;;;;7.17;1.50;;;;;;;;;;5087580;28;20274;-76
2022/10/06 11:02:49;;;;;;;4.43;1.60;;;;;;;;;;5086827;28;20839;-82
2022/10/06 11:05:16;;;;;;;5.40;1.30;;;;;;;;;;5090101;28;20200;-74
2022/10/06 11:07:46;;;;;;;4.73;1.60;;;;;;;;;;5088722;28;20172;-74
2022/10/06 11:10:18;;;;;;;4.97;1.50;;;;;;;;;;5089128;28;20593;-74
2022/10/06 11:13:03;;;;;;;6.13;1.50;;;;;;;;;;5071779;28;20192;-74
2022/10/06 11:15:32;;;;;;;6.07;1.50;;;;;;;;;;5081415;28;20180;-73
2022/10/06 11:18:06;;;;;;;5.30;1.50;;;;;;;;;;5087620;28;20218;-74
2022/10/06 11:20:52;;;;;;;5.17;1.47;;;;;;;;;;5071393;28;20249;-74
2022/10/06 11:23:45;;;;;;;6.53;1.50;;;;;;;;;;5088854;28;20480;-74
2022/10/06 11:26:18;;;;;;;6.43;1.50;;;;;;;;;;5064815;28;20234;-75
2022/10/06 11:28:53;;;;;;;4.43;1.40;;;;;;;;;;5085394;28;20211;-75
2022/10/06 11:31:19;;;;;;;4.70;1.40;;;;;;;;;;5085241;28;20220;-75
2022/10/06 11:33:53;;;;;;;5.93;1.27;;;;;;;;;;5078459;28;20189;-74
2022/10/06 11:36:26;;;;;;;5.70;1.67;;;;;;;;;;5086536;28;20272;-75
2022/10/06 11:38:55;;;;;;;4.57;1.37;;;;;;;;;;5083137;28;20724;-74
2022/10/06 11:41:21;;;;;;;3.93;1.40;;;;;;;;;;5060492;28;20211;-74
2022/10/06 11:44:05;;;;;;;4.43;1.30;;;;;;;;;;5082201;28;20628;-74
2022/10/06 11:46:36;;;;;;;3.97;1.30;;;;;;;;;;5081947;28;20230;-75
2022/10/06 11:49:21;;;;;;;3.23;1.20;;;;;;;;;;5086579;28;20185;-77
2022/10/06 11:51:47;;;;;;;3.87;1.30;;;;;;;;;;5081585;28;20196;-75
2022/10/06 11:54:32;;;;;;;5.07;1.30;;;;;;;;;;5065063;28;20297;-75
2022/10/06 11:56:58;;;;;;;4.57;1.20;;;;;;;;;;5082996;28;20187;-75
2022/10/06 11:59:30;;;;;;;4.27;1.60;;;;;;;;;;5079993;28;20231;-75
2022/10/06 12:01:57;;;;;;;4.20;1.40;;;;;;;;;;5065509;28;20227;-75
2022/10/06 12:04:25;;;;;;;4.47;1.60;;;;;;;;;;5086762;28;20200;-76
2022/10/06 12:06:52;;;;;;;4.37;1.43;;;;;;;;;;5087021;28;20176;-76
2022/10/06 12:09:37;;;;;;;5.57;1.50;;;;;;;;;;5068895;28;20176;-76
2022/10/06 12:12:18;;;;;;;2.40;1.10;;;;;;;;;;5082688;28;20276;-76
2022/10/06 12:15:02;;;;;;;3.87;1.50;;;;;;;;;;5087330;28;20200;-76
2022/10/06 12:17:32;;;;;;;7.57;1.50;;;;;;;;;;5079817;28;20248;-76
2022/10/06 12:20:01;;;;;;;3.03;1.30;;;;;;;;;;5077557;28;20233;-76
2022/10/06 12:22:38;;;;;;;3.67;1.50;;;;;;;;;;5085187;28;20281;-76
2022/10/06 12:25:23;;;;;;;4.63;1.30;;;;;;;;;;5086251;28;20856;-76
2022/10/06 12:27:52;;;;;;;4.27;1.50;;;;;;;;;;5087748;28;20615;-76
2022/10/06 12:30:24;;;;;;;2.97;1.00;;;;;;;;;;5084581;28;20184;-76
2022/10/06 12:32:54;;;;;;;4.90;1.40;;;;;;;;;;5057187;28;20188;-76
2022/10/06 12:35:31;;;;;;;3.40;1.20;;;;;;;;;;5077724;28;20193;-76
2022/10/06 12:38:03;;;;;;;2.43;1.20;;;;;;;;;;5078537;28;20474;-77
2022/10/06 12:40:48;;;;;;;3.17;1.50;;;;;;;;;;5079749;28;20181;-76
2022/10/06 12:43:16;;;;;;;3.93;1.50;;;;;;;;;;5048931;28;20184;-76
2022/10/06 12:45:56;;;;;;;3.50;1.60;;;;;;;;;;5080960;28;20176;-76
2022/10/06 12:48:24;;;;;;;4.00;1.47;;;;;;;;;;5067599;28;20195;-76
2022/10/06 12:50:52;;;;;;;4.50;1.60;;;;;;;;;;5072341;28;20212;-76
2022/10/06 12:53:21;;;;;;;4.57;1.40;;;;;;;;;;5078310;28;20181;-76
2022/10/06 12:55:48;;;;;;;4.40;1.70;;;;;;;;;;5074802;28;20182;-76
2022/10/06 12:58:18;;;;;;;5.47;1.40;;;;;;;;;;5083773;28;20762;-76
2022/10/06 13:00:44;;;;;;;5.53;1.50;;;;;;;;;;5063802;28;20330;-76
2022/10/06 13:03:18;;;;;;;4.63;1.60;;;;;;;;;;5083962;28;20216;-76
2022/10/06 13:05:51;;;;;;;4.10;1.60;;;;;;;;;;5082948;28;20189;-75
2022/10/06 13:08:28;;;;;;;4.27;1.50;;;;;;;;;;5082408;28;20181;-75
2022/10/06 13:11:13;;;;;;;5.20;1.77;;;;;;;;;;5084717;28;20395;-76
2022/10/06 13:13:50;;;;;;;3.73;1.43;;;;;;;;;;5081794;28;20199;-76
2022/10/06 13:16:20;;;;;;;3.73;1.40;;;;;;;;;;5085143;28;20659;-75
2022/10/06 13:18:47;;;;;;;5.07;1.47;;;;;;;;;;5076532;28;20180;-76
2022/10/06 13:21:15;;;;;;;4.83;1.40;;;;;;;;;;5082299;28;20306;-76
2022/10/06 13:23:42;;;;;;;3.03;1.40;;;;;;;;;;5085656;28;20239;-76
2022/10/06 13:26:20;;;;;;;3.23;1.40;;;;;;;;;;5085006;28;20178;-76
2022/10/06 13:28:48;;;;;;;3.43;1.47;;;;;;;;;;5083303;28;20193;-76
2022/10/06 13:31:14;;;;;;;4.00;1.50;;;;;;;;;;5086719;28;20205;-76
2022/10/06 13:33:41;;;;;;;3.47;1.40;;;;;;;;;;5078759;28;20230;-76
2022/10/06 13:36:09;;;;;;;2.90;1.10;;;;;;;;;;5068483;28;20185;-76
2022/10/06 13:38:40;;;;;;;4.90;1.60;;;;;;;;;;5085335;28;20204;-76
2022/10/06 13:41:27;;;;;;;4.33;1.50;;;;;;;;;;5085068;28;20241;-76
2022/10/06 13:43:55;;;;;;;5.07;1.50;;;;;;;;;;5076929;28;20303;-76
2022/10/06 13:46:23;;;;;;;5.70;1.60;;;;;;;;;;5082944;28;20557;-76
2022/10/06 13:48:52;;;;;;;4.87;1.60;;;;;;;;;;5082368;28;20740;-76
2022/10/06 13:51:19;;;;;;;4.20;1.67;;;;;;;;;;5081172;28;20272;-75
2022/10/06 13:53:46;;;;;;;3.37;1.53;;;;;;;;;;5079239;28;20187;-76
2022/10/06 13:56:23;;;;;;;4.70;1.60;;;;;;;;;;5083009;28;20196;-76
2022/10/06 13:58:49;;;;;;;5.10;1.57;;;;;;;;;;5085543;28;20663;-74
2022/10/06 14:01:26;;;;;;;5.23;1.63;;;;;;;;;;5072947;28;20219;-73
2022/10/06 14:04:11;;;;;;;4.90;1.60;;;;;;;;;;5071409;28;20216;-83
2022/10/06 14:06:38;;;;;;;5.00;1.20;;;;;;;;;;5085671;28;20238;-77
2022/10/06 14:09:10;;;;;;;5.03;1.53;;;;;;;;;;5068836;28;20213;-77
2022/10/06 14:11:37;;;;;;;4.10;1.40;;;;;;;;;;5081942;28;20206;-76
2022/10/06 14:14:04;;;;;;;3.57;1.60;;;;;;;;;;5080990;28;20196;-76
2022/10/06 14:16:30;;;;;;;4.73;1.57;;;;;;;;;;5079956;28;20184;-76
2022/10/06 14:18:58;;;;;;;5.67;1.60;;;;;;;;;;5061846;28;20193;-76
2022/10/06 14:21:34;;;;;;;3.43;1.40;;;;;;;;;;5091182;28;20207;-76
2022/10/06 14:24:01;;;;;;;4.40;1.30;;;;;;;;;;5091260;28;20263;-77
2022/10/06 14:26:29;;;;;;;4.30;1.50;;;;;;;;;;5090876;28;20191;-76
2022/10/06 14:28:56;;;;;;;4.73;1.60;;;;;;;;;;5091338;28;20188;-76
2022/10/06 14:31:23;;;;;;;5.00;1.57;;;;;;;;;;5090113;28;20647;-76
2022/10/06 14:33:53;;;;;;;3.37;1.57;;;;;;;;;;5087584;28;20198;-76
2022/10/06 14:36:26;;;;;;;4.60;1.33;;;;;;;;;;5083811;28;20212;-77
2022/10/06 14:38:52;;;;;;;4.97;1.40;;;;;;;;;;5068989;28;20195;-77
2022/10/06 14:41:23;;;;;;;2.77;1.40;;;;;;;;;;5082496;28;20258;-76
2022/10/06 14:43:51;;;;;;;3.70;1.33;;;;;;;;;;5090009;28;20457;-76
2022/10/06 14:46:17;;;;;;;3.73;1.70;;;;;;;;;;5089281;28;20271;-76
2022/10/06 14:48:43;;;;;;;5.17;1.67;;;;;;;;;;5087345;28;20176;-76
2022/10/06 14:51:10;;;;;;;7.00;1.73;;;;;;;;;;5084468;28;20196;-76
2022/10/06 14:53:39;;;;;;;4.67;1.57;;;;;;;;;;5083315;28;20228;-76
2022/10/06 14:56:07;;;;;;;3.23;1.53;;;;;;;;;;5083001;28;20217;-75
2022/10/06 14:58:38;;;;;;;5.13;1.50;;;;;;;;;;5066409;28;20184;-76
2022/10/06 15:01:06;;;;;;;4.63;1.50;;;;;;;;;;5057099;28;20319;-76
2022/10/06 15:03:33;;;;;;;3.40;1.30;;;;;;;;;;5086012;28;20184;-76
2022/10/06 15:08:52;;;;;;;3.77;1.30;;;;;;;;;;5065040;28;20173;-76
2022/10/06 15:11:19;;;;;;;4.07;1.30;;;;;;;;;;5088938;28;20188;-75
2022/10/06 15:13:46;;;;;;;3.77;1.60;;;;;;;;;;5071081;28;20267;-76